sensor_id;sensor_type;location;lat;lon;timestamp;pressure;altitude;pressure_sealevel;temperature;humidity
71476;BME280;59286;59.274;17.974;2023-02-14T00:01:55;102623.91;;;4.18;75.99
71476;BME280;59286;59.274;17.974;2023-02-14T00:04:21;102646.88;;;4.21;76.91
71476;BME280;59286;59.274;17.974;2023-02-14T00:06:46;102631.88;;;4.17;76.45
71476;BME280;59286;59.274;17.974;2023-02-14T00:09:18;102631.88;;;4.17;76.87
71476;BME280;59286;59.274;17.974;2023-02-14T00:11:44;102633.88;;;4.15;76.79
71476;BME280;59286;59.274;17.974;2023-02-14T00:14:10;102643.66;;;4.13;76.80
71476;BME280;59286;59.274;17.974;2023-02-14T00:16:54;102641.88;;;4.07;76.85
71476;BME280;59286;59.274;17.974;2023-02-14T00:19:20;102652.25;;;4.07;77.52
71476;BME280;59286;59.274;17.974;2023-02-14T00:21:47;102641.06;;;4.00;77.36
71476;BME280;59286;59.274;17.974;2023-02-14T00:24:18;102643.06;;;3.97;76.88
71476;BME280;59286;59.274;17.974;2023-02-14T00:26:44;102654.06;;;4.06;76.81
71476;BME280;59286;59.274;17.974;2023-02-14T00:29:12;102654.28;;;4.05;76.97
71476;BME280;59286;59.274;17.974;2023-02-14T00:31:38;102664.84;;;4.10;76.59
71476;BME280;59286;59.274;17.974;2023-02-14T00:34:04;102666.63;;;4.03;76.68
71476;BME280;59286;59.274;17.974;2023-02-14T00:36:29;102665.44;;;3.99;77.15
71476;BME280;59286;59.274;17.974;2023-02-14T00:38:55;102660.44;;;3.90;77.51
71476;BME280;59286;59.274;17.974;2023-02-14T00:41:21;102662.84;;;3.85;77.71
71476;BME280;59286;59.274;17.974;2023-02-14T00:43:47;102671.00;;;3.82;77.87
71476;BME280;59286;59.274;17.974;2023-02-14T00:46:14;102659.03;;;3.81;77.53
71476;BME280;59286;59.274;17.974;2023-02-14T00:48:39;102657.44;;;3.74;77.65
71476;BME280;59286;59.274;17.974;2023-02-14T00:51:05;102662.41;;;3.75;77.55
71476;BME280;59286;59.274;17.974;2023-02-14T00:53:30;102664.41;;;3.73;77.91
71476;BME280;59286;59.274;17.974;2023-02-14T00:55:56;102652.84;;;3.63;78.78
71476;BME280;59286;59.274;17.974;2023-02-14T00:58:21;102658.81;;;3.63;78.62
71476;BME280;59286;59.274;17.974;2023-02-14T01:00:46;102662.41;;;3.62;79.14
71476;BME280;59286;59.274;17.974;2023-02-14T01:03:12;102660.00;;;3.61;78.82
71476;BME280;59286;59.274;17.974;2023-02-14T01:05:37;102650.03;;;3.51;79.21
71476;BME280;59286;59.274;17.974;2023-02-14T01:08:03;102658.81;;;3.50;78.87
71476;BME280;59286;59.274;17.974;2023-02-14T01:10:28;102667.56;;;3.49;79.02
71476;BME280;59286;59.274;17.974;2023-02-14T01:12:54;102669.34;;;3.42;78.88
71476;BME280;59286;59.274;17.974;2023-02-14T01:15:19;102656.38;;;3.42;78.92
71476;BME280;59286;59.274;17.974;2023-02-14T01:17:44;102651.41;;;3.41;78.92
71476;BME280;59286;59.274;17.974;2023-02-14T01:20:10;102659.78;;;3.43;79.10
71476;BME280;59286;59.274;17.974;2023-02-14T01:22:36;102669.16;;;3.37;79.06
71476;BME280;59286;59.274;17.974;2023-02-14T01:25:03;102665.13;;;3.35;79.31
71476;BME280;59286;59.274;17.974;2023-02-14T01:27:28;102656.34;;;3.29;79.49
71476;BME280;59286;59.274;17.974;2023-02-14T01:29:54;102659.91;;;3.22;79.25
71476;BME280;59286;59.274;17.974;2023-02-14T01:32:19;102657.72;;;3.19;79.85
71476;BME280;59286;59.274;17.974;2023-02-14T01:34:44;102665.66;;;3.11;79.98
71476;BME280;59286;59.274;17.974;2023-02-14T01:37:11;102649.47;;;2.95;80.23
71476;BME280;59286;59.274;17.974;2023-02-14T01:39:36;102680.75;;;3.01;80.83
71476;BME280;59286;59.274;17.974;2023-02-14T01:42:01;102670.75;;;2.91;80.89
71476;BME280;59286;59.274;17.974;2023-02-14T01:46:55;102685.03;;;2.80;81.67
71476;BME280;59286;59.274;17.974;2023-02-14T01:49:27;102686.66;;;2.81;81.61
71476;BME280;59286;59.274;17.974;2023-02-14T01:52:11;102682.66;;;2.79;81.79
71476;BME280;59286;59.274;17.974;2023-02-14T01:54:42;102690.56;;;2.71;82.54
71476;BME280;59286;59.274;17.974;2023-02-14T01:57:10;102688.38;;;2.68;82.50
71476;BME280;59286;59.274;17.974;2023-02-14T01:59:40;102689.13;;;2.62;82.22
71476;BME280;59286;59.274;17.974;2023-02-14T02:02:07;102684.09;;;2.54;82.25
71476;BME280;59286;59.274;17.974;2023-02-14T02:04:36;102706.06;;;2.64;82.23
71476;BME280;59286;59.274;17.974;2023-02-14T02:07:04;102684.94;;;2.61;81.95
71476;BME280;59286;59.274;17.974;2023-02-14T02:09:46;102699.47;;;2.62;82.21
71476;BME280;59286;59.274;17.974;2023-02-14T02:12:12;102695.28;;;2.61;82.14
71476;BME280;59286;59.274;17.974;2023-02-14T02:14:38;102679.69;;;2.48;82.58
71476;BME280;59286;59.274;17.974;2023-02-14T02:17:28;102697.97;;;2.46;82.57
71476;BME280;59286;59.274;17.974;2023-02-14T02:42:00;102720.19;;;2.34;83.73
71476;BME280;59286;59.274;17.974;2023-02-14T02:44:56;102728.34;;;2.31;84.19
71476;BME280;59286;59.274;17.974;2023-02-14T02:47:27;102718.94;;;2.30;84.16
71476;BME280;59286;59.274;17.974;2023-02-14T02:50:01;102717.78;;;2.33;84.02
71476;BME280;59286;59.274;17.974;2023-02-14T02:53:12;102711.63;;;2.34;84.16
71476;BME280;59286;59.274;17.974;2023-02-14T02:55:41;102725.41;;;2.41;83.96
71476;BME280;59286;59.274;17.974;2023-02-14T02:58:31;102726.44;;;2.46;84.09
71476;BME280;59286;59.274;17.974;2023-02-14T03:00:59;102727.47;;;2.52;83.88
71476;BME280;59286;59.274;17.974;2023-02-14T03:03:27;102722.47;;;2.50;84.25
71476;BME280;59286;59.274;17.974;2023-02-14T03:06:13;102715.75;;;2.56;84.00
71476;BME280;59286;59.274;17.974;2023-02-14T03:08:38;102716.97;;;2.60;83.63
71476;BME280;59286;59.274;17.974;2023-02-14T03:11:04;102727.13;;;2.61;83.76
71476;BME280;59286;59.274;17.974;2023-02-14T03:13:42;102726.34;;;2.61;84.01
71476;BME280;59286;59.274;17.974;2023-02-14T03:19:35;102733.00;;;2.70;83.80
71476;BME280;59286;59.274;17.974;2023-02-14T03:22:38;102734.56;;;2.71;83.34
71476;BME280;59286;59.274;17.974;2023-02-14T03:28:09;102720.81;;;2.70;83.35
71476;BME280;59286;59.274;17.974;2023-02-14T03:30:44;102727.81;;;2.70;83.68
71476;BME280;59286;59.274;17.974;2023-02-14T03:33:26;102727.63;;;2.71;83.36
71476;BME280;59286;59.274;17.974;2023-02-14T03:36:14;102729.41;;;2.71;83.79
71476;BME280;59286;59.274;17.974;2023-02-14T03:38:48;102732.38;;;2.68;83.27
71476;BME280;59286;59.274;17.974;2023-02-14T03:41:18;102731.19;;;2.70;83.08
71476;BME280;59286;59.274;17.974;2023-02-14T03:43:50;102740.56;;;2.71;83.18
71476;BME280;59286;59.274;17.974;2023-02-14T03:46:29;102733.75;;;2.70;83.38
71476;BME280;59286;59.274;17.974;2023-02-14T03:48:59;102743.97;;;2.78;83.17
71476;BME280;59286;59.274;17.974;2023-02-14T03:51:28;102742.75;;;2.74;83.25
71476;BME280;59286;59.274;17.974;2023-02-14T03:53:59;102742.81;;;2.81;83.27
71476;BME280;59286;59.274;17.974;2023-02-14T03:56:30;102740.84;;;2.83;83.07
71476;BME280;59286;59.274;17.974;2023-02-14T03:59:02;102734.44;;;2.79;83.02
71476;BME280;59286;59.274;17.974;2023-02-14T04:01:43;102735.06;;;2.87;82.89
71476;BME280;59286;59.274;17.974;2023-02-14T04:04:12;102733.91;;;2.90;82.64
71476;BME280;59286;59.274;17.974;2023-02-14T04:06:39;102743.88;;;2.93;82.68
71476;BME280;59286;59.274;17.974;2023-02-14T04:09:04;102741.47;;;2.91;82.37
71476;BME280;59286;59.274;17.974;2023-02-14T04:11:31;102746.47;;;2.93;82.38
71476;BME280;59286;59.274;17.974;2023-02-14T04:13:59;102747.06;;;2.95;82.44
71476;BME280;59286;59.274;17.974;2023-02-14T04:16:24;102742.28;;;2.92;82.29
71476;BME280;59286;59.274;17.974;2023-02-14T04:18:50;102746.09;;;2.96;82.75
71476;BME280;59286;59.274;17.974;2023-02-14T04:21:34;102747.84;;;2.89;83.24
71476;BME280;59286;59.274;17.974;2023-02-14T04:23:59;102743.25;;;2.91;83.08
71476;BME280;59286;59.274;17.974;2023-02-14T04:26:24;102754.84;;;2.95;83.17
71476;BME280;59286;59.274;17.974;2023-02-14T04:28:50;102754.06;;;2.94;83.10
71476;BME280;59286;59.274;17.974;2023-02-14T04:31:15;102742.91;;;2.94;82.87
71476;BME280;59286;59.274;17.974;2023-02-14T04:33:41;102747.06;;;2.95;83.12
71476;BME280;59286;59.274;17.974;2023-02-14T04:36:08;102749.28;;;2.98;83.07
71476;BME280;59286;59.274;17.974;2023-02-14T04:38:33;102757.44;;;2.95;82.90
71476;BME280;59286;59.274;17.974;2023-02-14T04:40:59;102765.19;;;2.95;83.16
71476;BME280;59286;59.274;17.974;2023-02-14T04:43:24;102759.78;;;2.90;83.11
71476;BME280;59286;59.274;17.974;2023-02-14T04:45:49;102758.78;;;2.91;83.50
71476;BME280;59286;59.274;17.974;2023-02-14T04:48:15;102760.81;;;2.89;83.36
71476;BME280;59286;59.274;17.974;2023-02-14T04:50:40;102754.81;;;2.88;83.33
71476;BME280;59286;59.274;17.974;2023-02-14T04:53:05;102759.41;;;2.93;82.82
71476;BME280;59286;59.274;17.974;2023-02-14T04:55:31;102761.22;;;2.92;83.19
71476;BME280;59286;59.274;17.974;2023-02-14T04:57:56;102760.75;;;2.82;83.36
71476;BME280;59286;59.274;17.974;2023-02-14T05:00:21;102766.47;;;2.78;82.90
71476;BME280;59286;59.274;17.974;2023-02-14T05:02:48;102768.66;;;2.74;82.95
71476;BME280;59286;59.274;17.974;2023-02-14T05:05:14;102774.97;;;2.65;83.22
71476;BME280;59286;59.274;17.974;2023-02-14T05:07:39;102757.13;;;2.49;83.06
71476;BME280;59286;59.274;17.974;2023-02-14T05:10:06;102773.28;;;2.51;82.98
71476;BME280;59286;59.274;17.974;2023-02-14T05:12:32;102761.88;;;2.46;83.36
71476;BME280;59286;59.274;17.974;2023-02-14T05:14:57;102752.03;;;2.35;83.32
71476;BME280;59286;59.274;17.974;2023-02-14T05:17:23;102751.16;;;2.28;83.95
71476;BME280;59286;59.274;17.974;2023-02-14T05:19:48;102759.19;;;2.33;83.83
71476;BME280;59286;59.274;17.974;2023-02-14T05:22:13;102751.97;;;2.28;83.72
71476;BME280;59286;59.274;17.974;2023-02-14T05:24:39;102755.56;;;2.27;83.74
71476;BME280;59286;59.274;17.974;2023-02-14T05:27:04;102753.75;;;2.28;83.98
71476;BME280;59286;59.274;17.974;2023-02-14T05:29:29;102754.75;;;2.27;83.71
71476;BME280;59286;59.274;17.974;2023-02-14T05:31:55;102756.53;;;2.26;83.55
71476;BME280;59286;59.274;17.974;2023-02-14T05:34:20;102765.47;;;2.24;84.35
71476;BME280;59286;59.274;17.974;2023-02-14T05:36:45;102754.09;;;2.18;84.55
71476;BME280;59286;59.274;17.974;2023-02-14T05:39:11;102747.06;;;2.12;84.95
71476;BME280;59286;59.274;17.974;2023-02-14T05:41:39;102752.44;;;2.11;84.80
71476;BME280;59286;59.274;17.974;2023-02-14T05:44:04;102761.78;;;2.12;84.62
71476;BME280;59286;59.274;17.974;2023-02-14T05:46:29;102759.38;;;2.10;84.40
71476;BME280;59286;59.274;17.974;2023-02-14T05:48:55;102764.97;;;2.14;84.44
71476;BME280;59286;59.274;17.974;2023-02-14T05:51:20;102771.69;;;2.08;84.88
71476;BME280;59286;59.274;17.974;2023-02-14T05:53:45;102770.41;;;1.98;85.18
71476;BME280;59286;59.274;17.974;2023-02-14T05:56:11;102775.56;;;1.98;84.92
71476;BME280;59286;59.274;17.974;2023-02-14T05:58:36;102764.53;;;1.89;84.98
71476;BME280;59286;59.274;17.974;2023-02-14T06:01:01;102774.78;;;1.97;85.54
71476;BME280;59286;59.274;17.974;2023-02-14T06:03:27;102783.94;;;1.99;85.49
71476;BME280;59286;59.274;17.974;2023-02-14T06:05:52;102773.97;;;1.96;85.11
71476;BME280;59286;59.274;17.974;2023-02-14T06:08:17;102776.34;;;1.98;85.68
71476;BME280;59286;59.274;17.974;2023-02-14T06:10:43;102777.16;;;1.98;85.89
71476;BME280;59286;59.274;17.974;2023-02-14T06:13:08;102778.59;;;2.01;85.80
71476;BME280;59286;59.274;17.974;2023-02-14T06:15:35;102785.97;;;2.04;86.00
71476;BME280;59286;59.274;17.974;2023-02-14T06:18:01;102781.22;;;2.08;85.24
71476;BME280;59286;59.274;17.974;2023-02-14T06:20:27;102790.59;;;2.09;85.30
71476;BME280;59286;59.274;17.974;2023-02-14T06:22:53;102793.66;;;2.19;85.35
71476;BME280;59286;59.274;17.974;2023-02-14T06:25:20;102789.31;;;2.19;84.97
71476;BME280;59286;59.274;17.974;2023-02-14T06:27:46;102783.75;;;2.22;85.14
71476;BME280;59286;59.274;17.974;2023-02-14T06:30:12;102790.34;;;2.25;85.04
71476;BME280;59286;59.274;17.974;2023-02-14T06:32:37;102795.28;;;2.20;85.02
71476;BME280;59286;59.274;17.974;2023-02-14T06:35:04;102784.94;;;2.20;85.00
71476;BME280;59286;59.274;17.974;2023-02-14T06:37:29;102789.53;;;2.24;84.77
71476;BME280;59286;59.274;17.974;2023-02-14T06:39:54;102781.78;;;2.24;84.57
71476;BME280;59286;59.274;17.974;2023-02-14T06:42:20;102785.19;;;2.25;84.98
71476;BME280;59286;59.274;17.974;2023-02-14T06:44:45;102783.63;;;2.09;85.35
71476;BME280;59286;59.274;17.974;2023-02-14T06:47:10;102778.03;;;2.06;85.75
71476;BME280;59286;59.274;17.974;2023-02-14T06:49:36;102792.44;;;2.15;85.63
71476;BME280;59286;59.274;17.974;2023-02-14T06:52:03;102789.06;;;2.14;86.09
71476;BME280;59286;59.274;17.974;2023-02-14T06:54:28;102787.88;;;2.17;86.18
71476;BME280;59286;59.274;17.974;2023-02-14T06:56:54;102796.88;;;2.21;86.40
71476;BME280;59286;59.274;17.974;2023-02-14T06:59:19;102799.34;;;2.29;86.37
71476;BME280;59286;59.274;17.974;2023-02-14T07:01:44;102797.63;;;2.36;86.16
71476;BME280;59286;59.274;17.974;2023-02-14T07:04:10;102803.22;;;2.39;85.90
71476;BME280;59286;59.274;17.974;2023-02-14T07:06:36;102806.06;;;2.44;85.93
71476;BME280;59286;59.274;17.974;2023-02-14T07:09:02;102811.72;;;2.54;85.82
71476;BME280;59286;59.274;17.974;2023-02-14T07:11:27;102804.97;;;2.60;85.50
71476;BME280;59286;59.274;17.974;2023-02-14T07:13:53;102813.25;;;2.70;85.41
71476;BME280;59286;59.274;17.974;2023-02-14T07:16:18;102816.47;;;2.78;85.02
71476;BME280;59286;59.274;17.974;2023-02-14T07:18:43;102822.34;;;2.87;84.89
71476;BME280;59286;59.274;17.974;2023-02-14T07:21:09;102818.97;;;2.93;85.11
71476;BME280;59286;59.274;17.974;2023-02-14T07:23:34;102804.47;;;2.98;84.24
71476;BME280;59286;59.274;17.974;2023-02-14T07:26:00;102808.75;;;3.13;84.18
71476;BME280;59286;59.274;17.974;2023-02-14T07:28:25;102802.41;;;3.15;83.17
71476;BME280;59286;59.274;17.974;2023-02-14T07:30:50;102820.16;;;3.25;83.34
71476;BME280;59286;59.274;17.974;2023-02-14T07:33:16;102806.47;;;3.31;82.95
71476;BME280;59286;59.274;17.974;2023-02-14T07:35:41;102808.50;;;3.35;82.45
71476;BME280;59286;59.274;17.974;2023-02-14T07:38:06;102807.25;;;3.31;83.12
71476;BME280;59286;59.274;17.974;2023-02-14T07:40:32;102800.47;;;3.30;82.81
71476;BME280;59286;59.274;17.974;2023-02-14T07:42:58;102807.63;;;3.28;83.37
71476;BME280;59286;59.274;17.974;2023-02-14T07:45:24;102813.28;;;3.38;82.86
71476;BME280;59286;59.274;17.974;2023-02-14T07:47:51;102817.25;;;3.34;82.97
71476;BME280;59286;59.274;17.974;2023-02-14T07:50:18;102819.63;;;3.29;83.02
71476;BME280;59286;59.274;17.974;2023-02-14T07:52:44;102822.81;;;3.31;82.81
71476;BME280;59286;59.274;17.974;2023-02-14T07:55:09;102819.41;;;3.31;83.15
71476;BME280;59286;59.274;17.974;2023-02-14T07:57:35;102819.22;;;3.32;82.75
71476;BME280;59286;59.274;17.974;2023-02-14T08:00:00;102823.03;;;3.36;82.51
71476;BME280;59286;59.274;17.974;2023-02-14T08:02:26;102818.59;;;3.30;83.01
71476;BME280;59286;59.274;17.974;2023-02-14T08:04:51;102823.44;;;3.40;82.44
71476;BME280;59286;59.274;17.974;2023-02-14T08:07:16;102829.25;;;3.42;82.58
71476;BME280;59286;59.274;17.974;2023-02-14T08:09:42;102819.69;;;3.42;82.29
71476;BME280;59286;59.274;17.974;2023-02-14T08:12:08;102815.25;;;3.36;82.38
71476;BME280;59286;59.274;17.974;2023-02-14T08:14:52;102825.69;;;3.49;82.31
71476;BME280;59286;59.274;17.974;2023-02-14T08:17:18;102828.28;;;3.49;82.17
71476;BME280;59286;59.274;17.974;2023-02-14T08:19:43;102824.13;;;3.55;81.88
71476;BME280;59286;59.274;17.974;2023-02-14T08:22:08;102829.16;;;3.63;82.06
71476;BME280;59286;59.274;17.974;2023-02-14T08:24:34;102825.97;;;3.67;81.58
71476;BME280;59286;59.274;17.974;2023-02-14T08:26:59;102826.56;;;3.69;81.75
71476;BME280;59286;59.274;17.974;2023-02-14T08:29:24;102829.75;;;3.65;81.44
71476;BME280;59286;59.274;17.974;2023-02-14T08:31:50;102831.38;;;3.72;81.42
71476;BME280;59286;59.274;17.974;2023-02-14T08:34:17;102829.00;;;3.77;80.95
71476;BME280;59286;59.274;17.974;2023-02-14T08:36:42;102833.41;;;3.83;80.70
71476;BME280;59286;59.274;17.974;2023-02-14T08:39:08;102825.84;;;3.88;80.76
71476;BME280;59286;59.274;17.974;2023-02-14T08:41:34;102816.25;;;3.82;80.51
71476;BME280;59286;59.274;17.974;2023-02-14T08:43:59;102814.25;;;3.84;80.71
71476;BME280;59286;59.274;17.974;2023-02-14T08:46:25;102814.91;;;3.93;80.61
71476;BME280;59286;59.274;17.974;2023-02-14T08:48:51;102831.47;;;3.99;80.36
71476;BME280;59286;59.274;17.974;2023-02-14T08:51:17;102821.50;;;4.02;80.49
71476;BME280;59286;59.274;17.974;2023-02-14T08:53:43;102815.94;;;4.18;79.82
71476;BME280;59286;59.274;17.974;2023-02-14T08:56:10;102821.16;;;4.38;79.23
71476;BME280;59286;59.274;17.974;2023-02-14T08:58:37;102822.56;;;4.53;78.58
71476;BME280;59286;59.274;17.974;2023-02-14T09:01:10;102825.00;;;4.68;77.74
71476;BME280;59286;59.274;17.974;2023-02-14T09:03:36;102826.38;;;4.77;77.97
71476;BME280;59286;59.274;17.974;2023-02-14T09:06:08;102823.97;;;4.69;77.06
71476;BME280;59286;59.274;17.974;2023-02-14T09:08:36;102833.19;;;4.71;77.50
71476;BME280;59286;59.274;17.974;2023-02-14T09:11:19;102827.56;;;4.61;77.15
71476;BME280;59286;59.274;17.974;2023-02-14T09:13:49;102829.75;;;4.64;77.36
71476;BME280;59286;59.274;17.974;2023-02-14T09:16:15;102826.59;;;4.62;77.63
71476;BME280;59286;59.274;17.974;2023-02-14T09:18:44;102814.78;;;4.60;77.73
71476;BME280;59286;59.274;17.974;2023-02-14T09:21:12;102815.78;;;4.65;77.75
71476;BME280;59286;59.274;17.974;2023-02-14T09:23:38;102820.59;;;4.75;77.86
71476;BME280;59286;59.274;17.974;2023-02-14T09:26:06;102821.19;;;4.77;77.41
71476;BME280;59286;59.274;17.974;2023-02-14T09:28:33;102819.56;;;4.76;77.63
71476;BME280;59286;59.274;17.974;2023-02-14T09:31:13;102827.78;;;4.86;77.17
71476;BME280;59286;59.274;17.974;2023-02-14T09:33:39;102823.53;;;4.98;75.26
71476;BME280;59286;59.274;17.974;2023-02-14T09:36:23;102825.75;;;5.01;74.87
71476;BME280;59286;59.274;17.974;2023-02-14T09:38:49;102823.94;;;5.08;75.64
71476;BME280;59286;59.274;17.974;2023-02-14T09:43:59;102815.31;;;5.21;75.61
71476;BME280;59286;59.274;17.974;2023-02-14T09:46:27;102818.69;;;5.28;75.88
71476;BME280;59286;59.274;17.974;2023-02-14T09:48:55;102825.06;;;5.38;75.09
71476;BME280;59286;59.274;17.974;2023-02-14T09:51:26;102822.66;;;5.43;74.76
71476;BME280;59286;59.274;17.974;2023-02-14T09:53:59;102819.88;;;5.38;74.53
71476;BME280;59286;59.274;17.974;2023-02-14T09:56:34;102820.69;;;5.39;75.10
71476;BME280;59286;59.274;17.974;2023-02-14T10:01:50;102816.47;;;5.44;74.86
71476;BME280;59286;59.274;17.974;2023-02-14T10:07:19;102815.63;;;5.50;74.67
71476;BME280;59286;59.274;17.974;2023-02-14T10:10:11;102800.22;;;5.55;74.86
71476;BME280;59286;59.274;17.974;2023-02-14T10:12:59;102801.78;;;5.56;74.06
71476;BME280;59286;59.274;17.974;2023-02-14T10:15:31;102811.38;;;5.62;74.88
71476;BME280;59286;59.274;17.974;2023-02-14T10:20:57;102807.94;;;5.68;74.29
71476;BME280;59286;59.274;17.974;2023-02-14T10:23:35;102799.13;;;5.69;74.09
71476;BME280;59286;59.274;17.974;2023-02-14T10:26:26;102787.47;;;5.78;74.01
71476;BME280;59286;59.274;17.974;2023-02-14T10:28:54;102797.47;;;5.88;74.27
71476;BME280;59286;59.274;17.974;2023-02-14T10:31:47;102788.66;;;5.82;73.85
71476;BME280;59286;59.274;17.974;2023-02-14T10:34:38;102800.88;;;5.88;73.55
71476;BME280;59286;59.274;17.974;2023-02-14T10:40:02;102797.69;;;5.86;73.83
71476;BME280;59286;59.274;17.974;2023-02-14T10:42:44;102800.72;;;5.83;73.80
71476;BME280;59286;59.274;17.974;2023-02-14T10:48:13;102797.47;;;5.81;73.99
71476;BME280;59286;59.274;17.974;2023-02-14T10:50:45;102797.09;;;5.84;73.72
71476;BME280;59286;59.274;17.974;2023-02-14T10:53:25;102794.88;;;5.88;74.18
71476;BME280;59286;59.274;17.974;2023-02-14T10:56:39;102784.63;;;5.93;74.43
71476;BME280;59286;59.274;17.974;2023-02-14T10:58:47;102793.59;;;6.04;74.93
71476;BME280;59286;59.274;17.974;2023-02-14T11:01:16;102797.94;;;6.10;74.03
71476;BME280;59286;59.274;17.974;2023-02-14T11:03:55;102795.28;;;6.16;73.51
71476;BME280;59286;59.274;17.974;2023-02-14T11:06:22;102787.09;;;6.13;73.58
71476;BME280;59286;59.274;17.974;2023-02-14T11:08:48;102796.31;;;6.15;73.48
71476;BME280;59286;59.274;17.974;2023-02-14T11:11:24;102793.06;;;6.20;73.18
71476;BME280;59286;59.274;17.974;2023-02-14T11:13:50;102784.72;;;6.11;73.22
71476;BME280;59286;59.274;17.974;2023-02-14T11:16:35;102785.69;;;6.17;73.76
71476;BME280;59286;59.274;17.974;2023-02-14T11:21:40;102787.84;;;6.20;73.13
71476;BME280;59286;59.274;17.974;2023-02-14T11:26:51;102782.91;;;6.12;72.89
71476;BME280;59286;59.274;17.974;2023-02-14T11:29:31;102787.03;;;6.19;72.80
71476;BME280;59286;59.274;17.974;2023-02-14T11:32:06;102767.84;;;6.14;73.05
71476;BME280;59286;59.274;17.974;2023-02-14T11:34:34;102780.63;;;6.22;72.63
71476;BME280;59286;59.274;17.974;2023-02-14T11:37:02;102773.84;;;6.21;72.96
71476;BME280;59286;59.274;17.974;2023-02-14T11:39:30;102775.41;;;6.22;72.21
71476;BME280;59286;59.274;17.974;2023-02-14T11:41:59;102773.84;;;6.21;72.24
71476;BME280;59286;59.274;17.974;2023-02-14T11:44:29;102774.84;;;6.20;72.66
71476;BME280;59286;59.274;17.974;2023-02-14T11:47:16;102774.25;;;6.18;72.62
71476;BME280;59286;59.274;17.974;2023-02-14T11:49:53;102769.47;;;6.15;72.94
71476;BME280;59286;59.274;17.974;2023-02-14T11:52:19;102761.06;;;6.13;72.72
71476;BME280;59286;59.274;17.974;2023-02-14T11:54:51;102756.31;;;6.10;73.03
71476;BME280;59286;59.274;17.974;2023-02-14T11:57:28;102751.88;;;6.10;72.65
71476;BME280;59286;59.274;17.974;2023-02-14T11:59:57;102758.31;;;6.08;72.76
71476;BME280;59286;59.274;17.974;2023-02-14T12:02:35;102753.88;;;6.08;73.08
71476;BME280;59286;59.274;17.974;2023-02-14T12:05:05;102761.91;;;6.07;73.02
71476;BME280;59286;59.274;17.974;2023-02-14T12:07:42;102746.28;;;6.07;72.00
71476;BME280;59286;59.274;17.974;2023-02-14T12:12:57;102745.59;;;6.18;73.43
71476;BME280;59286;59.274;17.974;2023-02-14T12:18:00;102740.63;;;6.16;71.93
71476;BME280;59286;59.274;17.974;2023-02-14T12:20:41;102742.38;;;6.22;71.76
71476;BME280;59286;59.274;17.974;2023-02-14T12:23:24;102744.63;;;6.19;71.43
71476;BME280;59286;59.274;17.974;2023-02-14T12:26:02;102743.75;;;6.25;71.81
71476;BME280;59286;59.274;17.974;2023-02-14T12:28:35;102741.34;;;6.23;72.06
71476;BME280;59286;59.274;17.974;2023-02-14T12:31:10;102742.00;;;6.19;72.06
71476;BME280;59286;59.274;17.974;2023-02-14T12:33:37;102732.00;;;6.16;71.92
71476;BME280;59286;59.274;17.974;2023-02-14T12:36:23;102731.81;;;6.17;72.54
71476;BME280;59286;59.274;17.974;2023-02-14T12:49:36;102716.97;;;6.18;72.66
71476;BME280;59286;59.274;17.974;2023-02-14T12:52:32;102717.19;;;6.16;72.81
71476;BME280;59286;59.274;17.974;2023-02-14T12:57:41;102723.34;;;6.22;72.62
71476;BME280;59286;59.274;17.974;2023-02-14T13:00:21;102716.56;;;6.21;72.15
71476;BME280;59286;59.274;17.974;2023-02-14T13:09:00;102711.50;;;6.26;71.92
71476;BME280;59286;59.274;17.974;2023-02-14T13:17:52;102705.28;;;6.27;71.48
71476;BME280;59286;59.274;17.974;2023-02-14T13:20:41;102700.28;;;6.25;71.48
71476;BME280;59286;59.274;17.974;2023-02-14T13:23:21;102690.94;;;6.18;71.62
71476;BME280;59286;59.274;17.974;2023-02-14T13:26:20;102706.50;;;6.24;71.51
71476;BME280;59286;59.274;17.974;2023-02-14T13:29:01;102700.50;;;6.24;71.78
71476;BME280;59286;59.274;17.974;2023-02-14T13:31:27;102703.84;;;6.31;71.85
71476;BME280;59286;59.274;17.974;2023-02-14T13:33:57;102696.59;;;6.33;71.66
71476;BME280;59286;59.274;17.974;2023-02-14T13:36:25;102707.16;;;6.38;71.20
71476;BME280;59286;59.274;17.974;2023-02-14T13:38:54;102704.38;;;6.39;71.36
71476;BME280;59286;59.274;17.974;2023-02-14T13:41:21;102699.75;;;6.41;71.04
71476;BME280;59286;59.274;17.974;2023-02-14T13:48:57;102699.94;;;6.40;70.81
71476;BME280;59286;59.274;17.974;2023-02-14T13:51:43;102704.53;;;6.44;70.51
71476;BME280;59286;59.274;17.974;2023-02-14T13:57:34;102699.75;;;6.41;71.38
71476;BME280;59286;59.274;17.974;2023-02-14T14:02:52;102699.78;;;6.35;70.94
71476;BME280;59286;59.274;17.974;2023-02-14T14:05:48;102698.59;;;6.37;70.75
71476;BME280;59286;59.274;17.974;2023-02-14T14:10:58;102704.75;;;6.43;70.22
71476;BME280;59286;59.274;17.974;2023-02-14T14:18:52;102692.06;;;6.28;70.78
71476;BME280;59286;59.274;17.974;2023-02-14T14:21:42;102694.84;;;6.27;71.35
71476;BME280;59286;59.274;17.974;2023-02-14T14:24:16;102696.72;;;6.20;71.70
71476;BME280;59286;59.274;17.974;2023-02-14T14:26:50;102696.34;;;6.16;70.87
71476;BME280;59286;59.274;17.974;2023-02-14T14:29:38;102693.97;;;6.15;71.32
71476;BME280;59286;59.274;17.974;2023-02-14T14:32:31;102680.63;;;6.05;71.39
71476;BME280;59286;59.274;17.974;2023-02-14T14:37:44;102677.34;;;5.91;72.73
71476;BME280;59286;59.274;17.974;2023-02-14T14:40:23;102679.78;;;5.86;72.58
71476;BME280;59286;59.274;17.974;2023-02-14T14:42:50;102672.97;;;5.78;72.85
71476;BME280;59286;59.274;17.974;2023-02-14T14:45:26;102672.25;;;5.71;73.19
71476;BME280;59286;59.274;17.974;2023-02-14T14:47:55;102658.34;;;5.59;73.69
71476;BME280;59286;59.274;17.974;2023-02-14T14:50:24;102665.69;;;5.62;73.60
71476;BME280;59286;59.274;17.974;2023-02-14T14:53:13;102657.75;;;5.57;73.94